createdAt,value
2017-11-30T00:01:44.398Z,12.68
2017-11-30T00:04:10.796Z,14.68
2017-11-30T00:06:37.174Z,13.50
2017-11-30T00:09:03.669Z,13.73
2017-11-30T00:11:30.069Z,15.70
2017-11-30T00:13:56.443Z,16.08
2017-11-30T00:16:23.929Z,14.07
2017-11-30T00:18:50.321Z,13.57
2017-11-30T00:21:16.751Z,16.33
2017-11-30T00:23:43.242Z,14.32
2017-11-30T00:26:09.670Z,14.63
2017-11-30T00:28:36.100Z,13.80
2017-11-30T00:31:02.521Z,12.95
2017-11-30T00:33:29.020Z,13.98
2017-11-30T00:35:55.419Z,14.20
2017-11-30T00:38:21.833Z,13.52
2017-11-30T00:40:48.311Z,16.17
2017-11-30T00:43:26.981Z,15.90
2017-11-30T00:45:53.429Z,15.30
2017-11-30T00:48:19.842Z,13.32
2017-11-30T00:50:46.266Z,15.65
2017-11-30T00:53:12.716Z,14.23
2017-11-30T00:55:39.913Z,15.73
2017-11-30T00:58:06.349Z,13.68
2017-11-30T01:00:32.801Z,18.08
2017-11-30T01:02:59.237Z,16.20
2017-11-30T01:05:25.625Z,14.80
2017-11-30T01:07:52.058Z,16.77
2017-11-30T01:10:21.674Z,16.25
2017-11-30T01:12:48.101Z,15.70
2017-11-30T01:15:14.549Z,16.58
2017-11-30T01:17:40.994Z,17.40
2017-11-30T01:20:08.384Z,14.48
2017-11-30T01:22:34.805Z,18.17
2017-11-30T01:25:01.193Z,16.83
2017-11-30T01:27:27.575Z,16.95
2017-11-30T01:29:54.006Z,15.40
2017-11-30T01:32:20.416Z,17.55
2017-11-30T01:34:46.829Z,17.08
2017-11-30T01:37:13.269Z,17.92
2017-11-30T01:39:39.666Z,17.30
2017-11-30T01:42:06.037Z,17.00
2017-11-30T01:44:32.471Z,18.10
2017-11-30T01:46:58.862Z,18.10
2017-11-30T01:49:25.294Z,19.55
2017-11-30T01:51:51.705Z,18.33
2017-11-30T01:54:18.889Z,18.95
2017-11-30T01:56:45.322Z,17.85
2017-11-30T01:59:11.790Z,18.27
2017-11-30T02:01:38.269Z,19.60
2017-11-30T02:04:04.691Z,18.70
2017-11-30T02:06:31.105Z,17.42
2017-11-30T02:08:57.501Z,16.92
2017-11-30T02:11:23.907Z,18.05
2017-11-30T02:13:50.377Z,17.52
2017-11-30T02:16:16.793Z,17.67
2017-11-30T02:18:43.217Z,19.73
2017-11-30T02:21:09.703Z,17.83
2017-11-30T02:23:36.145Z,16.73
2017-11-30T02:26:02.550Z,17.40
2017-11-30T02:28:28.997Z,17.83
2017-11-30T02:30:56.619Z,14.80
2017-11-30T02:33:23.070Z,16.95
2017-11-30T02:35:49.561Z,18.85
2017-11-30T02:38:16.741Z,15.52
2017-11-30T02:40:43.239Z,15.00
2017-11-30T02:43:10.641Z,15.55
2017-11-30T02:45:37.089Z,15.93
2017-11-30T02:48:04.338Z,13.35
2017-11-30T02:50:30.782Z,15.05
2017-11-30T02:52:57.179Z,13.68
2017-11-30T02:55:23.634Z,13.52
2017-11-30T02:57:50.095Z,12.98
2017-11-30T03:00:16.545Z,14.52
2017-11-30T03:02:42.989Z,13.10
2017-11-30T03:05:09.483Z,13.82
2017-11-30T03:07:35.920Z,13.48
2017-11-30T03:10:02.349Z,14.05
2017-11-30T03:12:28.753Z,15.23
2017-11-30T03:14:56.230Z,15.55
2017-11-30T03:17:22.687Z,14.25
2017-11-30T03:19:49.151Z,14.80
2017-11-30T03:22:16.338Z,13.13
2017-11-30T03:24:42.805Z,13.60
2017-11-30T03:27:09.226Z,13.70
2017-11-30T03:29:35.720Z,16.48
2017-11-30T03:32:03.179Z,12.40
2017-11-30T03:34:29.642Z,12.15
2017-11-30T03:36:56.048Z,12.18
2017-11-30T03:39:22.465Z,10.82
2017-11-30T03:41:48.945Z,11.75
2017-11-30T03:44:15.374Z,12.25
2017-11-30T03:46:41.836Z,11.93
2017-11-30T03:49:08.246Z,13.15
2017-11-30T03:51:34.637Z,11.77
2017-11-30T03:54:01.083Z,12.05
2017-11-30T03:56:28.537Z,12.68
2017-11-30T03:58:54.957Z,13.15
2017-11-30T04:01:21.450Z,12.10
2017-11-30T04:03:48.670Z,11.65
2017-11-30T04:06:15.071Z,12.07
2017-11-30T04:08:42.235Z,10.50
2017-11-30T04:11:08.653Z,10.30
2017-11-30T04:13:35.057Z,11.38
2017-11-30T04:16:01.410Z,10.32
2017-11-30T04:18:27.833Z,11.50
2017-11-30T04:20:54.972Z,10.48
2017-11-30T04:23:21.627Z,10.25
2017-11-30T04:25:48.800Z,8.73
2017-11-30T04:28:15.940Z,10.75
2017-11-30T04:30:42.337Z,9.85
2017-11-30T04:33:08.786Z,10.00
2017-11-30T04:35:35.157Z,10.55
2017-11-30T04:38:01.590Z,10.55
2017-11-30T04:40:28.067Z,10.48
2017-11-30T04:42:54.477Z,9.75
2017-11-30T04:45:20.880Z,10.20
2017-11-30T04:47:47.343Z,9.18
2017-11-30T04:50:13.730Z,11.75
2017-11-30T04:52:40.906Z,9.43
2017-11-30T04:55:08.213Z,10.15
2017-11-30T04:57:34.581Z,10.20
2017-11-30T05:00:00.983Z,11.02
2017-11-30T05:02:27.457Z,10.45
2017-11-30T05:04:53.889Z,9.85
2017-11-30T05:07:20.309Z,12.18
2017-11-30T05:09:46.762Z,9.90
2017-11-30T05:12:13.969Z,10.95
2017-11-30T05:14:40.412Z,10.80
2017-11-30T05:17:06.833Z,10.30
2017-11-30T05:19:33.227Z,9.93
2017-11-30T05:21:59.635Z,10.65
2017-11-30T05:24:26.046Z,11.35
2017-11-30T05:26:53.205Z,11.90
2017-11-30T05:29:19.589Z,11.35
2017-11-30T05:31:45.989Z,10.75
2017-11-30T05:34:13.108Z,11.35
2017-11-30T05:36:39.541Z,11.23
2017-11-30T05:39:05.970Z,10.60
2017-11-30T05:41:32.437Z,11.45
2017-11-30T05:43:58.818Z,12.30
2017-11-30T05:46:25.262Z,11.50
2017-11-30T05:48:52.384Z,10.75
2017-11-30T05:51:18.765Z,11.75
2017-11-30T05:53:45.954Z,9.63
2017-11-30T05:56:13.449Z,10.40
2017-11-30T05:58:39.843Z,11.77
2017-11-30T06:01:06.279Z,10.85
2017-11-30T06:03:32.681Z,10.93
2017-11-30T06:05:59.096Z,10.55
2017-11-30T06:08:25.497Z,12.00
2017-11-30T06:10:51.884Z,12.18
2017-11-30T06:13:19.059Z,10.70
2017-11-30T06:15:45.477Z,12.00
2017-11-30T06:18:12.757Z,11.48
2017-11-30T06:20:39.178Z,11.18
2017-11-30T06:23:05.593Z,12.27
2017-11-30T06:25:33.033Z,14.07
2017-11-30T06:27:59.478Z,12.27
2017-11-30T06:30:25.896Z,13.52
2017-11-30T06:32:52.293Z,15.00
2017-11-30T06:35:18.704Z,14.52
2017-11-30T06:37:45.125Z,12.80
2017-11-30T06:40:12.274Z,14.85
2017-11-30T06:42:38.694Z,14.70
2017-11-30T06:45:05.138Z,15.50
2017-11-30T06:47:31.536Z,15.57
2017-11-30T06:49:57.934Z,14.25
2017-11-30T06:52:25.101Z,15.55
2017-11-30T06:54:52.301Z,16.60
2017-11-30T06:57:18.781Z,15.07
2017-11-30T06:59:45.213Z,14.75
2017-11-30T07:02:11.606Z,16.02
2017-11-30T07:04:38.030Z,15.25
2017-11-30T07:07:04.449Z,13.85
2017-11-30T07:09:30.949Z,16.70
2017-11-30T07:11:58.085Z,15.80
2017-11-30T07:14:24.509Z,15.45
2017-11-30T07:16:50.910Z,14.65
2017-11-30T07:19:18.049Z,15.93
2017-11-30T07:21:45.207Z,15.65
2017-11-30T07:24:11.636Z,15.52
2017-11-30T07:26:38.077Z,18.00
2017-11-30T07:29:04.530Z,16.90
2017-11-30T07:31:30.947Z,16.33
2017-11-30T07:33:57.411Z,18.00
2017-11-30T07:36:23.804Z,16.90
2017-11-30T07:38:50.950Z,17.80
2017-11-30T07:41:17.383Z,17.55
2017-11-30T07:43:43.794Z,18.00
2017-11-30T07:46:10.206Z,16.27
2017-11-30T07:48:36.677Z,18.58
2017-11-30T07:51:03.133Z,16.62
2017-11-30T07:53:29.570Z,18.10
2017-11-30T07:55:56.025Z,17.40
2017-11-30T07:58:22.430Z,16.08
2017-11-30T08:00:48.814Z,15.88
2017-11-30T08:03:15.197Z,16.92
2017-11-30T08:05:41.617Z,16.02
2017-11-30T08:08:08.033Z,15.23
2017-11-30T08:10:34.409Z,15.50
2017-11-30T08:13:01.569Z,16.23
2017-11-30T08:15:27.970Z,14.07
2017-11-30T08:17:54.394Z,14.32
2017-11-30T08:20:20.829Z,14.50
2017-11-30T08:22:47.253Z,13.68
2017-11-30T08:25:13.689Z,15.25
2017-11-30T08:27:40.884Z,12.85
2017-11-30T08:30:07.997Z,13.13
2017-11-30T08:32:34.421Z,13.38
2017-11-30T08:35:00.894Z,13.80
2017-11-30T08:37:27.324Z,14.00
2017-11-30T08:39:53.717Z,13.85
2017-11-30T08:42:20.173Z,13.77
2017-11-30T08:44:46.620Z,15.07
2017-11-30T08:47:13.091Z,13.32
2017-11-30T08:49:39.533Z,13.02
2017-11-30T08:52:05.981Z,14.30
2017-11-30T08:54:32.417Z,13.60
2017-11-30T08:56:58.882Z,13.07
2017-11-30T08:59:25.325Z,13.35
2017-11-30T09:01:52.013Z,14.77
2017-11-30T09:04:19.234Z,16.40
2017-11-30T09:06:45.702Z,15.32
2017-11-30T09:09:12.120Z,15.77
2017-11-30T09:11:38.541Z,15.13
2017-11-30T09:14:04.940Z,14.95
2017-11-30T09:16:31.325Z,15.00
2017-11-30T09:18:57.766Z,11.77
2017-11-30T09:21:24.194Z,13.62
2017-11-30T09:23:50.574Z,14.00
2017-11-30T09:26:17.025Z,12.43
2017-11-30T09:28:43.413Z,13.70
2017-11-30T09:31:09.789Z,12.75
2017-11-30T09:33:36.222Z,13.38
2017-11-30T09:36:03.377Z,11.95
2017-11-30T09:38:29.749Z,13.10
2017-11-30T09:40:56.195Z,13.48
2017-11-30T09:43:22.611Z,11.82
2017-11-30T09:45:49.754Z,13.50
2017-11-30T09:48:16.921Z,12.75
2017-11-30T09:50:43.321Z,14.50
2017-11-30T09:53:09.717Z,13.20
2017-11-30T09:55:36.164Z,12.75
2017-11-30T09:58:02.530Z,12.00
2017-11-30T10:00:29.681Z,13.38
2017-11-30T10:02:56.173Z,9.32
2017-11-30T10:05:22.587Z,11.55
2017-11-30T10:07:48.996Z,10.77
2017-11-30T10:10:17.299Z,10.80
2017-11-30T10:12:43.716Z,11.55
2017-11-30T10:15:10.111Z,9.40
2017-11-30T10:17:36.518Z,12.10
2017-11-30T10:20:03.018Z,9.60
2017-11-30T10:22:29.420Z,10.40
2017-11-30T10:24:56.573Z,11.23
2017-11-30T10:27:22.982Z,10.43
2017-11-30T10:29:49.405Z,10.20
2017-11-30T10:32:15.882Z,10.05
2017-11-30T10:34:42.372Z,10.40
2017-11-30T10:37:09.545Z,9.73
2017-11-30T10:39:35.962Z,11.93
2017-11-30T10:42:02.349Z,11.32
2017-11-30T10:44:28.751Z,13.45
2017-11-30T10:46:55.894Z,13.02
2017-11-30T10:49:22.266Z,12.48
2017-11-30T10:51:48.669Z,12.18
2017-11-30T10:54:15.113Z,15.35
2017-11-30T10:56:41.597Z,14.25
2017-11-30T10:59:08.773Z,12.25
2017-11-30T11:01:35.237Z,14.57
2017-11-30T11:04:01.645Z,13.57
2017-11-30T11:06:28.809Z,11.20
2017-11-30T11:08:55.958Z,12.23
2017-11-30T11:11:22.353Z,12.93
2017-11-30T11:13:48.771Z,14.32
2017-11-30T11:16:15.178Z,14.35
2017-11-30T11:18:41.647Z,10.63
2017-11-30T11:21:08.077Z,13.20
2017-11-30T11:23:35.497Z,11.18
2017-11-30T11:26:01.874Z,13.95
2017-11-30T11:28:28.319Z,13.73
2017-11-30T11:30:54.734Z,12.13
2017-11-30T11:33:21.142Z,13.75
2017-11-30T11:35:48.261Z,12.25
2017-11-30T11:38:14.705Z,12.27
2017-11-30T11:40:41.106Z,13.15
2017-11-30T11:43:08.239Z,12.85
2017-11-30T11:45:34.625Z,13.50
2017-11-30T11:48:01.001Z,12.05
2017-11-30T11:50:27.410Z,12.25
2017-11-30T11:52:53.861Z,12.55
2017-11-30T11:55:20.330Z,13.20
2017-11-30T11:57:46.714Z,13.07
2017-11-30T12:00:13.906Z,12.10
2017-11-30T12:02:41.016Z,10.82
2017-11-30T12:05:08.190Z,12.35
2017-11-30T12:07:35.334Z,11.25
2017-11-30T12:10:01.758Z,10.27
2017-11-30T12:12:28.143Z,10.60
2017-11-30T12:14:55.289Z,10.65
2017-11-30T12:17:21.693Z,10.10
2017-11-30T12:19:48.094Z,11.93
2017-11-30T12:22:15.245Z,9.93
2017-11-30T12:24:41.629Z,10.00
2017-11-30T12:27:08.806Z,10.00
2017-11-30T12:29:35.262Z,10.77
2017-11-30T12:32:01.674Z,11.00
2017-11-30T12:34:28.085Z,10.38
2017-11-30T12:36:54.473Z,8.30
2017-11-30T12:39:21.621Z,10.65
2017-11-30T12:41:48.024Z,9.05
2017-11-30T12:44:14.443Z,10.63
2017-11-30T12:46:40.834Z,10.70
2017-11-30T12:49:07.989Z,10.48
2017-11-30T12:51:35.154Z,9.88
2017-11-30T12:54:02.577Z,12.15
2017-11-30T12:56:29.027Z,10.25
2017-11-30T12:58:55.488Z,10.07
2017-11-30T13:01:21.893Z,9.20
2017-11-30T13:03:48.283Z,10.80
2017-11-30T13:06:14.709Z,10.20
2017-11-30T13:08:41.120Z,10.50
2017-11-30T13:11:08.324Z,9.68
2017-11-30T13:13:34.755Z,10.70
2017-11-30T13:16:01.184Z,9.57
2017-11-30T13:18:27.620Z,10.55
2017-11-30T13:20:54.056Z,9.35
2017-11-30T13:23:21.224Z,8.43
2017-11-30T13:25:48.541Z,8.82
2017-11-30T13:28:15.166Z,9.23
2017-11-30T13:30:41.544Z,10.15
2017-11-30T13:33:07.928Z,9.32
2017-11-30T13:35:34.340Z,10.73
2017-11-30T13:38:00.752Z,10.50
2017-11-30T13:40:27.152Z,11.23
2017-11-30T13:42:53.588Z,9.50
2017-11-30T13:45:20.679Z,10.18
2017-11-30T13:47:47.064Z,11.27
2017-11-30T13:50:13.492Z,11.55
2017-11-30T13:52:39.917Z,11.65
2017-11-30T13:55:06.321Z,10.55
2017-11-30T13:57:32.723Z,9.98
2017-11-30T13:59:59.160Z,9.73
2017-11-30T14:02:25.568Z,10.73
2017-11-30T14:04:51.993Z,11.10
2017-11-30T14:07:18.364Z,10.07
2017-11-30T14:09:44.776Z,12.00
2017-11-30T14:12:11.928Z,12.27
2017-11-30T14:14:38.332Z,13.48
2017-11-30T14:17:04.647Z,11.38
2017-11-30T14:19:31.056Z,11.23
2017-11-30T14:21:57.468Z,10.10
2017-11-30T14:24:23.864Z,10.77
2017-11-30T14:26:50.994Z,10.23
2017-11-30T14:29:17.400Z,9.75
2017-11-30T14:31:44.900Z,10.38
2017-11-30T14:34:11.332Z,9.43
2017-11-30T14:36:37.788Z,10.18
2017-11-30T14:39:04.215Z,10.18
2017-11-30T14:41:30.634Z,8.23
2017-11-30T14:43:57.079Z,10.35
2017-11-30T14:46:24.264Z,8.82
2017-11-30T14:48:50.684Z,11.07
2017-11-30T14:51:17.824Z,10.07
2017-11-30T14:53:44.236Z,9.00
2017-11-30T14:56:10.655Z,11.02
2017-11-30T14:58:37.052Z,10.48
2017-11-30T15:01:03.444Z,9.70
2017-11-30T15:03:29.844Z,10.27
2017-11-30T15:05:56.240Z,9.77
2017-11-30T15:08:22.600Z,9.38
2017-11-30T15:10:49.021Z,10.15
2017-11-30T15:13:15.462Z,9.43
2017-11-30T15:15:41.907Z,10.45
2017-11-30T15:18:08.269Z,10.45
2017-11-30T15:20:35.712Z,10.60
2017-11-30T15:23:02.843Z,9.77
2017-11-30T15:25:30.044Z,9.52
2017-11-30T15:27:56.464Z,9.40
2017-11-30T15:30:23.791Z,9.52
2017-11-30T15:32:51.020Z,9.93
2017-11-30T15:35:17.407Z,9.70
2017-11-30T15:37:43.778Z,10.43
2017-11-30T15:40:10.284Z,10.00
2017-11-30T15:42:36.732Z,10.70
2017-11-30T15:45:03.140Z,8.32
2017-11-30T15:47:29.628Z,9.40
2017-11-30T15:49:56.211Z,8.68
2017-11-30T15:52:22.615Z,9.05
2017-11-30T15:54:49.074Z,7.80
2017-11-30T15:57:15.453Z,9.43
2017-11-30T15:59:42.532Z,8.65
2017-11-30T16:02:08.952Z,10.35
2017-11-30T16:04:36.171Z,8.52
2017-11-30T16:07:03.597Z,8.43
2017-11-30T16:09:30.083Z,8.05
2017-11-30T16:11:56.535Z,8.00
2017-11-30T16:14:23.226Z,9.30
2017-11-30T16:16:49.639Z,9.27
2017-11-30T16:19:16.013Z,10.10
2017-11-30T16:21:43.135Z,8.05
2017-11-30T16:24:09.516Z,9.45
2017-11-30T16:26:35.979Z,10.55
2017-11-30T16:29:02.366Z,10.85
2017-11-30T16:31:29.547Z,8.10
2017-11-30T16:33:55.943Z,9.50
2017-11-30T16:36:22.344Z,8.60
2017-11-30T16:38:49.473Z,8.73
2017-11-30T16:41:15.876Z,8.00
2017-11-30T16:43:42.341Z,8.55
2017-11-30T16:46:09.534Z,6.90
2017-11-30T16:48:35.929Z,7.70
2017-11-30T16:51:02.297Z,7.22
2017-11-30T16:53:28.723Z,7.37
2017-11-30T16:55:55.164Z,7.53
2017-11-30T16:58:21.538Z,8.02
2017-11-30T17:00:47.944Z,7.50
2017-11-30T17:03:14.305Z,7.55
2017-11-30T17:05:40.676Z,7.85
2017-11-30T17:08:07.070Z,8.20
2017-11-30T17:10:33.508Z,7.75
2017-11-30T17:13:00.672Z,8.48
2017-11-30T17:15:27.112Z,10.23
2017-11-30T17:17:54.315Z,8.23
2017-11-30T17:20:20.720Z,9.07
2017-11-30T17:22:48.292Z,8.45
2017-11-30T17:25:15.643Z,7.57
2017-11-30T17:27:42.128Z,7.32
2017-11-30T17:30:08.600Z,7.97
2017-11-30T17:32:36.140Z,7.72
2017-11-30T17:35:02.561Z,8.82
2017-11-30T17:37:29.036Z,7.47
2017-11-30T17:39:55.420Z,7.25
2017-11-30T17:42:21.848Z,6.68
2017-11-30T17:44:48.253Z,7.18
2017-11-30T17:47:15.368Z,5.00
2017-11-30T17:49:42.840Z,4.25
2017-11-30T17:52:10.024Z,3.80
2017-11-30T17:54:36.403Z,3.28
2017-11-30T17:57:02.848Z,3.45
2017-11-30T17:59:29.311Z,2.80
2017-11-30T18:01:55.684Z,3.67
2017-11-30T18:04:22.064Z,3.12
2017-11-30T18:06:48.501Z,2.90
2017-11-30T18:09:15.623Z,3.00
2017-11-30T18:11:42.311Z,2.75
2017-11-30T18:14:08.771Z,3.20
2017-11-30T18:16:35.911Z,3.00
2017-11-30T18:19:02.292Z,2.42
2017-11-30T18:21:28.668Z,4.40
2017-11-30T18:23:55.058Z,2.90
2017-11-30T18:26:22.556Z,2.90
2017-11-30T18:28:48.965Z,3.05
2017-11-30T18:31:16.072Z,3.03
2017-11-30T18:33:42.476Z,3.17
2017-11-30T18:36:08.920Z,3.55
2017-11-30T18:38:36.076Z,3.17
2017-11-30T18:41:02.565Z,3.67
2017-11-30T18:43:29.385Z,3.62
2017-11-30T18:45:56.044Z,4.70
2017-11-30T18:48:22.439Z,4.70
2017-11-30T18:50:48.876Z,4.22
2017-11-30T18:53:15.589Z,4.20
2017-11-30T18:55:42.780Z,5.05
2017-11-30T18:58:09.202Z,4.85
2017-11-30T19:00:35.596Z,4.20
2017-11-30T19:03:02.044Z,4.62
2017-11-30T19:05:29.225Z,4.32
2017-11-30T19:07:56.387Z,3.78
2017-11-30T19:10:23.554Z,4.25
2017-11-30T19:12:49.948Z,4.80
2017-11-30T19:15:16.360Z,4.43
2017-11-30T19:17:42.808Z,4.65
2017-11-30T19:20:09.920Z,4.20
2017-11-30T19:22:36.452Z,4.57
2017-11-30T19:25:02.906Z,5.57
2017-11-30T19:27:29.316Z,5.68
2017-11-30T19:29:55.752Z,4.60
2017-11-30T19:32:22.140Z,4.80
2017-11-30T19:34:48.634Z,5.07
2017-11-30T19:37:15.008Z,5.43
2017-11-30T19:39:41.344Z,5.35
2017-11-30T19:42:07.781Z,4.85
2017-11-30T19:44:34.332Z,5.40
2017-11-30T19:47:00.812Z,5.18
2017-11-30T19:49:27.233Z,5.70
2017-11-30T19:51:54.609Z,5.10
2017-11-30T19:54:21.025Z,5.45
2017-11-30T19:56:47.460Z,6.60
2017-11-30T19:59:13.833Z,5.55
2017-11-30T20:01:40.216Z,6.05
2017-11-30T20:04:07.367Z,4.78
2017-11-30T20:06:33.776Z,5.03
2017-11-30T20:09:01.171Z,6.25
2017-11-30T20:11:28.341Z,6.40
2017-11-30T20:13:54.724Z,6.85
2017-11-30T20:16:21.124Z,5.10
2017-11-30T20:18:48.320Z,5.97
2017-11-30T20:21:15.535Z,6.00
2017-11-30T20:23:41.999Z,6.22
2017-11-30T20:26:08.484Z,6.20
2017-11-30T20:28:35.611Z,6.72
2017-11-30T20:31:02.376Z,6.40
2017-11-30T20:33:29.740Z,7.12
2017-11-30T20:35:57.362Z,6.25
2017-11-30T20:38:23.784Z,7.05
2017-11-30T20:40:50.159Z,6.68
2017-11-30T20:43:16.530Z,7.03
2017-11-30T20:45:42.937Z,6.60
2017-11-30T20:48:09.349Z,6.82
2017-11-30T20:50:36.488Z,6.20
2017-11-30T20:53:02.896Z,7.03
2017-11-30T20:55:29.300Z,7.15
2017-11-30T20:57:56.468Z,6.97
2017-11-30T21:00:22.903Z,5.82
2017-11-30T21:02:49.324Z,7.62
2017-11-30T21:05:15.760Z,6.32
2017-11-30T21:07:42.217Z,5.50
2017-11-30T21:10:09.399Z,7.25
2017-11-30T21:12:36.531Z,6.60
2017-11-30T21:15:02.970Z,6.90
2017-11-30T21:17:30.392Z,7.30
2017-11-30T21:19:56.792Z,7.40
2017-11-30T21:22:23.147Z,5.95
2017-11-30T21:24:50.288Z,5.75
2017-11-30T21:27:16.715Z,5.90
2017-11-30T21:29:43.444Z,5.40
2017-11-30T21:32:09.848Z,5.28
2017-11-30T21:34:36.996Z,5.47
2017-11-30T21:37:03.385Z,5.50
2017-11-30T21:39:29.788Z,6.28
2017-11-30T21:41:56.275Z,6.25
2017-11-30T21:44:22.719Z,6.50
2017-11-30T21:46:49.156Z,6.37
2017-11-30T21:49:16.304Z,7.20
2017-11-30T21:51:43.440Z,8.15
2017-11-30T21:54:10.601Z,7.60
2017-11-30T21:56:37.061Z,7.50
2017-11-30T21:59:03.481Z,6.93
2017-11-30T22:01:29.924Z,9.10
2017-11-30T22:03:56.332Z,7.50
2017-11-30T22:06:22.728Z,8.23
2017-11-30T22:08:49.903Z,6.60
2017-11-30T22:11:16.308Z,6.80
2017-11-30T22:13:42.705Z,7.43
2017-11-30T22:16:09.107Z,6.22
2017-11-30T22:18:35.569Z,7.35
2017-11-30T22:21:02.012Z,7.40
2017-11-30T22:23:28.524Z,7.53
2017-11-30T22:25:55.913Z,6.72
2017-11-30T22:28:22.355Z,6.70
2017-11-30T22:30:48.747Z,7.03
2017-11-30T22:33:15.929Z,7.93
2017-11-30T22:35:42.379Z,8.38
2017-11-30T22:38:09.262Z,7.78
2017-11-30T22:40:35.780Z,6.40
2017-11-30T22:43:02.247Z,5.82
2017-11-30T22:45:28.688Z,6.65
2017-11-30T22:47:55.087Z,7.75
2017-11-30T22:50:22.308Z,7.40
2017-11-30T22:52:48.751Z,7.70
2017-11-30T22:55:15.148Z,6.70
2017-11-30T22:57:42.327Z,8.13
2017-11-30T23:00:08.800Z,8.32
2017-11-30T23:02:35.233Z,7.45
2017-11-30T23:05:01.660Z,8.57
2017-11-30T23:07:28.067Z,8.25
2017-11-30T23:09:54.447Z,8.75
2017-11-30T23:12:20.880Z,8.85
2017-11-30T23:14:47.316Z,8.43
2017-11-30T23:17:14.497Z,7.75
2017-11-30T23:19:40.924Z,7.80
2017-11-30T23:22:07.316Z,7.78
2017-11-30T23:24:34.455Z,7.47
2017-11-30T23:27:00.880Z,6.95
2017-11-30T23:29:27.364Z,8.63
2017-11-30T23:31:53.808Z,9.07
2017-11-30T23:34:20.308Z,7.45
2017-11-30T23:36:46.776Z,7.72
2017-11-30T23:39:13.219Z,5.65
2017-11-30T23:41:39.617Z,7.10
2017-11-30T23:44:08.302Z,6.85
2017-11-30T23:46:35.761Z,7.10
2017-11-30T23:49:02.160Z,6.75
2017-11-30T23:51:28.555Z,7.07
2017-11-30T23:53:55.015Z,7.30
2017-11-30T23:56:21.420Z,6.87
2017-11-30T23:58:48.636Z,8.95
